Time;durP1;ratioP1;P1;durP2;ratioP2;P2;SDS_P1;SDS_P2;PMS_P1;PMS_P2;Temp;Humidity;BMP_temperature;BMP_pressure;BME280_temperature;BME280_humidity;BME280_pressure;Samples;Min_cycle;Max_cycle;Signal;HPM_P1;HPM_P2
2022/03/24 00:00:19;;;;;;;1999.90;999.90;;;3.60;99.90;;;;;;5072566;28;20453;-73
2022/03/24 00:02:46;;;;;;;1999.90;999.90;;;3.60;99.90;;;;;;5076918;28;20449;-73
2022/03/24 00:05:13;;;;;;;1999.90;999.90;;;3.70;99.90;;;;;;5076859;28;20504;-73
2022/03/24 00:07:41;;;;;;;1999.90;999.90;;;3.70;99.90;;;;;;5076023;28;20442;-72
2022/03/24 00:10:09;;;;;;;1999.90;999.90;;;3.70;99.90;;;;;;5076480;28;20477;-70
2022/03/24 00:12:39;;;;;;;1999.90;999.90;;;3.70;99.90;;;;;;5075977;28;20485;-75
2022/03/24 00:15:07;;;;;;;1999.90;999.90;;;3.70;99.90;;;;;;5076281;28;20850;-75
2022/03/24 00:17:34;;;;;;;1999.90;999.90;;;3.70;99.90;;;;;;5075890;28;20449;-74
2022/03/24 00:20:01;;;;;;;1999.90;999.90;;;3.80;99.90;;;;;;5076801;28;20937;-75
2022/03/24 00:22:28;;;;;;;1999.90;999.90;;;3.80;99.90;;;;;;5076868;28;20509;-75
2022/03/24 00:24:55;;;;;;;1999.90;999.90;;;3.80;99.90;;;;;;5077364;28;20464;-75
2022/03/24 00:27:21;;;;;;;1999.90;999.90;;;3.70;99.90;;;;;;5076796;28;21010;-75
2022/03/24 00:29:50;;;;;;;1999.90;999.90;;;3.70;99.90;;;;;;5076916;28;20453;-74
2022/03/24 00:32:16;;;;;;;1999.90;999.90;;;3.70;99.90;;;;;;5076720;28;20480;-75
2022/03/24 00:34:43;;;;;;;1999.90;999.90;;;3.80;99.90;;;;;;5076770;28;20480;-74
2022/03/24 00:37:11;;;;;;;1999.90;999.90;;;3.80;99.90;;;;;;5076207;28;20475;-74
2022/03/24 00:39:37;;;;;;;1999.90;999.90;;;3.70;99.90;;;;;;5076969;28;20453;-75
2022/03/24 00:42:11;;;;;;;1999.90;999.90;;;3.70;99.90;;;;;;5076214;28;20949;-74
2022/03/24 00:44:40;;;;;;;1999.90;999.90;;;3.80;99.90;;;;;;5076280;28;20560;-75
2022/03/24 00:47:08;;;;;;;1999.90;999.90;;;3.80;99.90;;;;;;5076936;28;20453;-74
2022/03/24 00:49:35;;;;;;;1999.90;999.90;;;3.80;99.90;;;;;;5076400;28;20996;-74
2022/03/24 00:52:02;;;;;;;1999.90;999.90;;;3.70;99.90;;;;;;5075453;28;20473;-75
2022/03/24 00:54:29;;;;;;;1999.90;999.90;;;3.60;99.90;;;;;;5076274;28;20474;-73
2022/03/24 00:56:56;;;;;;;1999.90;999.90;;;3.70;99.90;;;;;;5075662;28;20988;-72
2022/03/24 00:59:22;;;;;;;1999.90;999.90;;;3.60;99.90;;;;;;5055856;28;20500;-74
2022/03/24 01:01:49;;;;;;;1999.90;999.90;;;3.50;99.90;;;;;;5059858;28;20472;-74
2022/03/24 01:04:17;;;;;;;1999.90;999.90;;;3.50;99.90;;;;;;5075856;28;20476;-73
2022/03/24 01:06:44;;;;;;;1999.90;999.90;;;3.40;99.90;;;;;;5075288;28;20461;-74
2022/03/24 01:09:11;;;;;;;1999.90;999.90;;;3.40;99.90;;;;;;5075708;28;20450;-75
2022/03/24 01:11:37;;;;;;;1999.90;999.90;;;3.30;99.90;;;;;;5074224;28;20992;-74
2022/03/24 01:14:05;;;;;;;1999.90;999.90;;;3.20;99.90;;;;;;5073872;28;20488;-73
2022/03/24 01:16:32;;;;;;;1999.90;999.90;;;3.20;99.90;;;;;;5074854;28;20526;-74
2022/03/24 01:18:59;;;;;;;1999.90;999.90;;;3.20;99.90;;;;;;5075221;28;20987;-74
2022/03/24 01:21:27;;;;;;;1999.90;999.90;;;2.90;99.90;;;;;;5074566;28;20743;-76
2022/03/24 01:23:54;;;;;;;1999.90;999.90;;;2.90;99.90;;;;;;5074497;28;20478;-76
2022/03/24 01:26:22;;;;;;;1999.90;999.90;;;2.90;99.90;;;;;;5074113;28;20938;-74
2022/03/24 01:28:50;;;;;;;1999.90;999.90;;;2.90;99.90;;;;;;5074651;28;20458;-75
2022/03/24 01:31:17;;;;;;;1999.90;999.90;;;3.00;99.90;;;;;;5075151;28;20872;-75
2022/03/24 01:33:44;;;;;;;1999.90;999.90;;;3.10;99.90;;;;;;5074794;28;21002;-73
2022/03/24 01:36:11;;;;;;;1999.90;999.90;;;3.00;99.90;;;;;;5075953;28;20429;-76
2022/03/24 01:38:39;;;;;;;1999.90;999.90;;;3.10;99.90;;;;;;5075248;28;20449;-75
2022/03/24 01:41:07;;;;;;;1999.90;999.90;;;3.10;99.90;;;;;;5074810;28;20495;-73
2022/03/24 01:43:34;;;;;;;1999.90;999.90;;;3.10;99.90;;;;;;5075013;28;20466;-72
2022/03/24 01:46:01;;;;;;;1999.90;999.90;;;3.10;99.90;;;;;;5074978;28;20474;-73
2022/03/24 01:48:27;;;;;;;1999.90;999.90;;;3.10;99.90;;;;;;5075013;28;20457;-75
2022/03/24 01:50:55;;;;;;;1999.90;999.90;;;3.10;99.90;;;;;;5074470;28;20446;-74
2022/03/24 01:53:22;;;;;;;1999.90;999.90;;;3.00;99.90;;;;;;5074800;28;20568;-73
2022/03/24 01:55:54;;;;;;;1999.90;999.90;;;3.00;99.90;;;;;;5075026;28;20441;-74
2022/03/24 01:58:23;;;;;;;1999.90;999.90;;;3.00;99.90;;;;;;5074587;28;20504;-74
2022/03/24 02:00:51;;;;;;;1999.90;999.90;;;3.10;99.90;;;;;;5074301;28;20886;-73
2022/03/24 02:03:19;;;;;;;1999.90;999.90;;;3.10;99.90;;;;;;5074473;28;20933;-73
2022/03/24 02:05:46;;;;;;;1999.90;999.90;;;3.00;99.90;;;;;;5074772;28;20453;-73
2022/03/24 02:08:13;;;;;;;1999.90;999.90;;;2.70;99.90;;;;;;5075685;28;20503;-74
2022/03/24 02:10:40;;;;;;;1999.90;999.90;;;2.60;99.90;;;;;;5076193;28;20446;-74
2022/03/24 02:13:09;;;;;;;1999.90;999.90;;;2.40;99.90;;;;;;5076167;28;20488;-75
2022/03/24 02:15:36;;;;;;;1999.90;999.90;;;2.50;99.90;;;;;;5075120;28;20973;-73
2022/03/24 02:18:03;;;;;;;1999.90;999.90;;;2.50;99.90;;;;;;5075813;28;20449;-74
2022/03/24 02:20:33;;;;;;;1999.90;999.90;;;2.40;99.90;;;;;;5075365;28;20900;-75
2022/03/24 02:23:02;;;;;;;1999.90;999.90;;;2.50;99.90;;;;;;5074516;28;21022;-74
2022/03/24 02:25:32;;;;;;;1999.90;999.90;;;2.50;99.90;;;;;;5073154;28;20449;-74
2022/03/24 02:28:01;;;;;;;1999.90;999.90;;;2.50;99.90;;;;;;5075013;28;20465;-74
2022/03/24 02:30:29;;;;;;;1999.90;999.90;;;2.50;99.90;;;;;;5074778;28;20549;-73
2022/03/24 02:32:56;;;;;;;1999.90;999.90;;;2.60;99.90;;;;;;5075209;28;20477;-74
2022/03/24 02:35:22;;;;;;;1999.90;999.90;;;2.60;99.90;;;;;;5074537;28;20477;-73
2022/03/24 02:37:49;;;;;;;1999.90;999.90;;;2.60;99.90;;;;;;5073579;28;20499;-74
2022/03/24 02:40:17;;;;;;;1999.90;999.90;;;2.60;99.90;;;;;;5074062;28;20453;-73
2022/03/24 02:42:46;;;;;;;1999.90;999.90;;;2.50;99.90;;;;;;5074449;28;20472;-73
2022/03/24 02:45:13;;;;;;;1999.90;999.90;;;2.50;99.90;;;;;;5074004;28;20473;-74
2022/03/24 02:47:40;;;;;;;1999.90;999.90;;;2.50;99.90;;;;;;5075534;28;20873;-75
2022/03/24 02:50:09;;;;;;;1999.90;999.90;;;2.40;99.90;;;;;;5075143;28;20503;-74
2022/03/24 02:52:36;;;;;;;1999.90;999.90;;;2.30;99.90;;;;;;5076071;28;20485;-73
2022/03/24 02:55:03;;;;;;;1999.90;999.90;;;2.20;99.90;;;;;;5075041;28;20468;-74
2022/03/24 02:57:31;;;;;;;1999.90;999.90;;;2.20;99.90;;;;;;5074593;28;20475;-73
2022/03/24 02:59:58;;;;;;;1999.90;999.90;;;2.20;99.90;;;;;;5074799;28;20437;-75
2022/03/24 03:02:25;;;;;;;1999.90;999.90;;;2.10;99.90;;;;;;5075253;28;20452;-73
2022/03/24 03:04:53;;;;;;;1999.90;999.90;;;2.20;99.90;;;;;;5075280;28;20473;-76
2022/03/24 03:07:20;;;;;;;1999.90;999.90;;;2.40;99.90;;;;;;5074345;28;20494;-72
2022/03/24 03:09:47;;;;;;;1999.90;999.90;;;2.80;99.90;;;;;;5073801;28;20464;-77
2022/03/24 03:12:16;;;;;;;1999.90;999.90;;;2.40;99.90;;;;;;5073064;28;20802;-74
2022/03/24 03:14:46;;;;;;;1999.90;999.90;;;2.40;99.90;;;;;;5073202;28;20520;-75
2022/03/24 03:17:15;;;;;;;1999.90;999.90;;;2.40;99.90;;;;;;5073012;28;20450;-74
2022/03/24 03:19:43;;;;;;;1999.90;999.90;;;2.50;99.90;;;;;;5073235;28;20453;-74
2022/03/24 03:22:10;;;;;;;1999.90;999.90;;;2.60;99.90;;;;;;5072882;28;20454;-74
2022/03/24 03:24:39;;;;;;;1999.90;999.90;;;2.50;99.90;;;;;;5073815;28;20546;-74
2022/03/24 03:27:06;;;;;;;1999.90;999.90;;;2.60;99.90;;;;;;5073751;28;20458;-73
2022/03/24 03:29:33;;;;;;;1999.90;999.90;;;2.60;99.90;;;;;;5053524;28;20455;-74
2022/03/24 03:32:02;;;;;;;1999.90;999.90;;;2.60;99.90;;;;;;5067988;28;20861;-73
2022/03/24 03:34:29;;;;;;;1999.90;999.90;;;2.60;99.90;;;;;;5074175;28;20469;-74
2022/03/24 03:36:56;;;;;;;1999.90;999.90;;;2.50;99.90;;;;;;5072053;28;20441;-75
2022/03/24 03:39:24;;;;;;;1999.90;999.90;;;2.50;99.90;;;;;;5073422;28;20502;-75
2022/03/24 03:41:51;;;;;;;1999.90;999.90;;;2.50;99.90;;;;;;5072494;28;20449;-74
2022/03/24 03:44:18;;;;;;;1999.90;999.90;;;2.50;99.90;;;;;;5072692;28;20450;-75
2022/03/24 03:46:45;;;;;;;1999.90;999.90;;;2.60;99.90;;;;;;5073698;28;20449;-77
2022/03/24 03:49:13;;;;;;;1999.90;999.90;;;2.60;99.90;;;;;;5074315;28;20446;-74
2022/03/24 03:51:41;;;;;;;1999.90;999.90;;;2.50;99.90;;;;;;5073612;28;20441;-74
2022/03/24 03:54:08;;;;;;;1999.90;999.90;;;2.50;99.90;;;;;;5072780;28;20481;-74
2022/03/24 03:56:36;;;;;;;1999.90;999.90;;;2.50;99.90;;;;;;5073255;28;20507;-74
2022/03/24 03:59:03;;;;;;;1999.90;999.90;;;2.40;99.90;;;;;;5072810;28;20550;-73
2022/03/24 04:01:30;;;;;;;1999.90;999.90;;;2.50;99.90;;;;;;5072736;28;20953;-76
2022/03/24 04:03:57;;;;;;;1999.90;999.90;;;2.50;99.90;;;;;;5072650;28;20853;-73
2022/03/24 04:06:26;;;;;;;1999.90;999.90;;;2.40;99.90;;;;;;5072971;28;20476;-74
2022/03/24 04:08:53;;;;;;;1999.90;999.90;;;2.40;99.90;;;;;;5072922;28;20972;-73
2022/03/24 04:11:19;;;;;;;1999.90;999.90;;;2.40;99.90;;;;;;5072602;28;20442;-75
2022/03/24 04:13:46;;;;;;;1999.90;999.90;;;2.40;99.90;;;;;;5072496;28;21054;-74
2022/03/24 04:16:13;;;;;;;1999.90;999.90;;;2.40;99.90;;;;;;5073534;28;20545;-74
2022/03/24 04:18:41;;;;;;;1999.90;999.90;;;2.30;99.90;;;;;;5072927;28;20457;-77
2022/03/24 04:21:08;;;;;;;1999.90;999.90;;;2.30;99.90;;;;;;5072739;28;20452;-74
2022/03/24 04:23:37;;;;;;;1999.90;999.90;;;2.50;99.90;;;;;;5072034;28;20465;-75
2022/03/24 04:26:05;;;;;;;1999.90;999.90;;;2.20;99.90;;;;;;5073000;28;20457;-73
2022/03/24 04:28:31;;;;;;;1999.90;999.90;;;2.20;99.90;;;;;;5072434;28;20490;-73
2022/03/24 04:30:58;;;;;;;1999.90;999.90;;;2.20;99.90;;;;;;5072666;28;20454;-74
2022/03/24 04:33:25;;;;;;;1999.90;999.90;;;2.20;99.90;;;;;;5071832;28;20485;-73
2022/03/24 04:35:52;;;;;;;1999.90;999.90;;;2.10;99.90;;;;;;5073153;28;20846;-74
2022/03/24 04:38:19;;;;;;;1999.90;999.90;;;2.10;99.90;;;;;;5071641;28;20532;-73
2022/03/24 04:40:48;;;;;;;1999.90;999.90;;;2.10;99.90;;;;;;5072289;28;20437;-77
2022/03/24 04:43:15;;;;;;;1999.90;999.90;;;2.10;99.90;;;;;;5072662;28;20475;-74
2022/03/24 04:45:43;;;;;;;1999.90;999.90;;;2.10;99.90;;;;;;5052375;28;20541;-74
2022/03/24 04:48:10;;;;;;;1999.90;999.90;;;2.10;99.90;;;;;;5052703;28;20477;-74
2022/03/24 04:50:37;;;;;;;1999.90;999.90;;;2.00;99.90;;;;;;5075155;28;20453;-74
2022/03/24 04:53:04;;;;;;;1999.90;999.90;;;2.00;99.90;;;;;;5075781;28;20526;-73
2022/03/24 04:55:30;;;;;;;1999.90;999.90;;;2.00;99.90;;;;;;5076069;28;20449;-73
2022/03/24 04:57:59;;;;;;;1999.90;999.90;;;2.00;99.90;;;;;;5075754;28;20450;-74
2022/03/24 05:00:26;;;;;;;1999.90;999.90;;;2.10;99.90;;;;;;5074826;28;20819;-74
2022/03/24 05:02:52;;;;;;;1999.90;999.90;;;2.00;99.90;;;;;;5075607;28;20475;-73
2022/03/24 05:05:19;;;;;;;1999.90;999.90;;;1.90;99.90;;;;;;5073610;28;20480;-74
2022/03/24 05:07:46;;;;;;;1999.90;999.90;;;1.90;99.90;;;;;;5074010;28;20479;-74
2022/03/24 05:10:13;;;;;;;1999.90;999.90;;;2.00;99.90;;;;;;5079233;28;20457;-76
2022/03/24 05:12:41;;;;;;;1999.90;999.90;;;1.90;99.90;;;;;;5089406;28;20533;-74
2022/03/24 05:15:14;;;;;;;1999.90;999.90;;;1.90;99.90;;;;;;5076300;28;21076;-73
2022/03/24 05:17:41;;;;;;;1999.90;999.90;;;1.90;99.90;;;;;;5076423;28;20450;-73
2022/03/24 05:20:09;;;;;;;1999.90;999.90;;;1.90;99.90;;;;;;5076718;28;20445;-74
2022/03/24 05:22:37;;;;;;;1999.90;999.90;;;1.80;99.90;;;;;;5077918;28;20442;-74
2022/03/24 05:25:05;;;;;;;1999.90;999.90;;;1.70;99.90;;;;;;5077724;28;20472;-73
2022/03/24 05:27:32;;;;;;;1999.90;999.90;;;1.90;99.90;;;;;;5077245;28;20449;-72
2022/03/24 05:29:59;;;;;;;1999.90;999.90;;;2.00;99.90;;;;;;5076369;28;20450;-73
2022/03/24 05:32:27;;;;;;;1999.90;999.90;;;2.00;99.90;;;;;;5076508;28;20449;-74
2022/03/24 05:34:54;;;;;;;1999.90;999.90;;;2.00;99.90;;;;;;5085159;22;21146;-67
2022/03/24 05:37:21;;;;;;;1999.90;999.90;;;1.90;99.90;;;;;;5046600;28;20965;-68
2022/03/24 05:39:48;;;;;;;1999.90;999.90;;;2.00;99.90;;;;;;5048921;28;20533;-67
2022/03/24 05:42:14;;;;;;;1999.90;999.90;;;2.00;99.90;;;;;;5050006;28;20447;-69
2022/03/24 05:44:41;;;;;;;1999.90;999.90;;;2.10;99.90;;;;;;5053539;28;20994;-68
2022/03/24 05:47:08;;;;;;;1999.90;999.90;;;2.30;99.90;;;;;;5072559;28;20445;-66
2022/03/24 05:49:37;;;;;;;1999.90;999.90;;;2.30;99.90;;;;;;5053576;28;20447;-66
2022/03/24 05:52:05;;;;;;;1999.90;999.90;;;2.30;99.90;;;;;;5048489;28;20442;-68
2022/03/24 05:54:31;;;;;;;1999.90;999.90;;;1.70;99.90;;;;;;5048156;28;20482;-68
2022/03/24 05:56:58;;;;;;;1999.90;999.90;;;2.10;99.90;;;;;;5050345;28;20504;-69
2022/03/24 05:59:25;;;;;;;1999.90;999.90;;;2.20;99.90;;;;;;5053850;28;20462;-68
2022/03/24 06:01:52;;;;;;;1999.90;999.90;;;2.20;99.90;;;;;;5053604;28;20446;-69
2022/03/24 06:04:21;;;;;;;1999.90;999.90;;;2.20;99.90;;;;;;5061017;28;20446;-68
2022/03/24 06:06:53;;;;;;;1999.90;999.90;;;2.40;99.90;;;;;;5071774;28;20457;-68
2022/03/24 06:09:21;;;;;;;1999.90;999.90;;;2.50;99.90;;;;;;5047648;28;20873;-67
2022/03/24 06:11:48;;;;;;;1999.90;999.90;;;2.60;99.90;;;;;;5052842;28;20446;-68
2022/03/24 06:14:15;;;;;;;1999.90;999.90;;;2.80;99.90;;;;;;5053450;28;20486;-68
2022/03/24 06:16:42;;;;;;;1999.90;999.90;;;3.00;99.90;;;;;;5057029;28;20457;-68
2022/03/24 06:19:10;;;;;;;1999.90;999.90;;;3.10;99.90;;;;;;5073197;28;20449;-69
2022/03/24 06:21:37;;;;;;;1999.90;999.90;;;3.20;99.90;;;;;;5067079;28;20451;-67
2022/03/24 06:24:06;;;;;;;1999.90;999.90;;;3.50;99.90;;;;;;5046938;28;20870;-68
2022/03/24 06:26:33;;;;;;;1999.90;999.90;;;3.60;99.90;;;;;;5048107;28;20478;-66
2022/03/24 06:29:01;;;;;;;1999.90;999.90;;;3.80;99.90;;;;;;5047610;28;20454;-67
2022/03/24 06:31:28;;;;;;;1999.90;999.90;;;4.00;99.90;;;;;;5048519;28;20469;-67
2022/03/24 06:33:54;;;;;;;1999.90;999.90;;;4.10;99.90;;;;;;5052808;28;21005;-68
2022/03/24 06:36:21;;;;;;;1999.90;999.90;;;4.20;99.90;;;;;;5053410;28;20881;-68
2022/03/24 06:38:48;;;;;;;1999.90;999.90;;;4.40;99.90;;;;;;5054055;28;20493;-69
2022/03/24 06:41:16;;;;;;;1999.90;999.90;;;4.70;99.90;;;;;;5054395;28;20446;-68
2022/03/24 06:43:46;;;;;;;1999.90;999.90;;;4.90;99.90;;;;;;5060995;28;20438;-67
2022/03/24 06:46:13;;;;;;;1999.90;999.90;;;4.90;99.90;;;;;;5049060;28;21020;-69
2022/03/24 06:48:40;;;;;;;1999.90;999.90;;;4.90;99.90;;;;;;5074236;28;20450;-69
2022/03/24 06:51:07;;;;;;;1999.90;999.90;;;5.10;99.90;;;;;;5075143;28;20453;-70
2022/03/24 06:53:34;;;;;;;1999.90;999.90;;;5.20;99.90;;;;;;5067871;28;20477;-69
2022/03/24 06:56:01;;;;;;;1999.90;999.90;;;5.40;99.90;;;;;;5077371;28;20461;-69
2022/03/24 06:58:29;;;;;;;1999.90;999.90;;;5.50;99.90;;;;;;5056908;28;20454;-69
2022/03/24 07:00:55;;;;;;;1999.90;999.90;;;5.70;99.90;;;;;;5050299;28;20458;-67
2022/03/24 07:03:22;;;;;;;1999.90;999.90;;;6.00;99.90;;;;;;5050697;28;20477;-67
2022/03/24 07:05:49;;;;;;;1999.90;999.90;;;6.10;99.90;;;;;;5054223;28;20481;-69
2022/03/24 07:08:16;;;;;;;1999.90;999.90;;;6.30;99.90;;;;;;5056811;28;20496;-69
2022/03/24 07:10:42;;;;;;;1999.90;999.90;;;6.50;99.90;;;;;;5058641;28;21046;-69
2022/03/24 07:13:09;;;;;;;1999.90;999.90;;;6.80;99.90;;;;;;5053813;28;20447;-69
2022/03/24 07:15:37;;;;;;;1999.90;999.90;;;7.10;99.90;;;;;;5053099;28;20516;-68
2022/03/24 07:18:04;;;;;;;1999.90;999.90;;;7.40;99.90;;;;;;5049065;28;20446;-68
2022/03/24 07:20:33;;;;;;;1999.90;999.90;;;7.70;99.90;;;;;;5046012;28;20458;-68
2022/03/24 07:23:02;;;;;;;1999.90;999.90;;;7.90;99.90;;;;;;5046409;28;20870;-68
2022/03/24 07:25:30;;;;;;;1999.90;999.90;;;8.10;99.90;;;;;;5046220;28;20470;-68
2022/03/24 07:27:56;;;;;;;1999.90;999.90;;;8.30;99.90;;;;;;5047942;28;20446;-68
2022/03/24 07:30:23;;;;;;;1999.90;999.90;;;8.50;99.90;;;;;;5067508;28;21026;-68
2022/03/24 07:32:51;;;;;;;1999.90;999.90;;;8.50;99.90;;;;;;5067521;28;20453;-69
2022/03/24 07:35:19;;;;;;;1999.90;999.90;;;8.50;99.90;;;;;;5069998;28;21039;-69
2022/03/24 07:37:47;;;;;;;1999.90;999.90;;;8.60;99.90;;;;;;5062156;28;20458;-67
2022/03/24 07:40:18;;;;;;;1999.90;999.90;;;8.60;99.90;;;;;;5046181;28;20446;-68
2022/03/24 07:42:45;;;;;;;1999.90;999.90;;;8.50;99.90;;;;;;5048270;28;20443;-69
2022/03/24 07:45:12;;;;;;;1999.90;999.90;;;8.60;99.90;;;;;;5066015;28;20514;-69
2022/03/24 07:48:08;;;;;;;1999.90;999.90;;;8.90;99.90;;;;;;5061814;28;20450;-69
2022/03/24 07:50:35;;;;;;;1999.90;999.90;;;9.20;99.90;;;;;;5056375;28;20446;-67
2022/03/24 07:53:16;;;;;;;1999.90;999.90;;;9.40;99.90;;;;;;5045642;28;20446;-67
2022/03/24 07:55:44;;;;;;;1999.90;999.90;;;9.60;99.90;;;;;;5044956;28;20485;-67
2022/03/24 07:58:12;;;;;;;1999.90;999.90;;;9.80;99.90;;;;;;5048191;28;20451;-69
2022/03/24 08:00:40;;;;;;;1999.90;999.90;;;9.70;99.90;;;;;;5053077;28;20446;-69
2022/03/24 08:03:10;;;;;;;1999.90;999.90;;;10.00;99.90;;;;;;5061328;28;20457;-69
2022/03/24 08:05:37;;;;;;;1999.90;999.90;;;10.20;99.90;;;;;;5060203;28;20462;-69
2022/03/24 08:08:05;;;;;;;1999.90;999.90;;;10.40;99.90;;;;;;5054040;28;20450;-70
2022/03/24 08:10:31;;;;;;;1999.90;999.90;;;10.70;99.90;;;;;;5051047;28;20462;-69
2022/03/24 08:12:58;;;;;;;1999.90;999.90;;;10.80;99.00;;;;;;5046871;28;20892;-69
2022/03/24 08:15:25;;;;;;;1999.90;999.90;;;11.00;98.70;;;;;;5046700;28;20886;-69
2022/03/24 08:17:52;;;;;;;1999.90;999.90;;;11.10;98.40;;;;;;5047457;28;20500;-69
2022/03/24 08:20:20;;;;;;;1999.90;999.90;;;11.30;98.10;;;;;;5052324;28;20508;-68
2022/03/24 08:22:47;;;;;;;1999.90;999.90;;;11.40;97.40;;;;;;5053553;28;20496;-69
2022/03/24 08:25:13;;;;;;;1999.90;999.90;;;11.30;96.80;;;;;;5056495;28;20458;-68
2022/03/24 08:27:40;;;;;;;1999.90;999.90;;;11.30;97.80;;;;;;5057276;28;20537;-70
2022/03/24 08:30:08;;;;;;;1999.90;999.90;;;11.40;97.60;;;;;;5057272;28;20508;-67
2022/03/24 08:32:34;;;;;;;1999.90;999.90;;;11.60;97.50;;;;;;5052045;28;21012;-69
2022/03/24 08:35:02;;;;;;;1999.90;999.90;;;11.80;97.20;;;;;;5051406;28;20942;-69
2022/03/24 08:37:30;;;;;;;1999.90;999.90;;;11.80;97.50;;;;;;5056796;28;20489;-70
2022/03/24 08:39:57;;;;;;;1999.90;999.90;;;12.00;97.30;;;;;;5057214;28;20993;-70
2022/03/24 08:42:24;;;;;;;1999.90;999.90;;;12.20;97.20;;;;;;5057028;28;20496;-70
2022/03/24 08:44:50;;;;;;;1999.90;999.90;;;12.10;97.20;;;;;;5055744;28;20476;-70
2022/03/24 08:47:17;;;;;;;1999.90;999.90;;;12.30;97.00;;;;;;5056684;28;20442;-69
2022/03/24 08:49:44;;;;;;;1999.90;999.90;;;12.40;97.20;;;;;;5056365;28;20446;-70
2022/03/24 08:52:12;;;;;;;1999.90;999.90;;;12.60;97.20;;;;;;5055704;28;20446;-69
2022/03/24 08:54:40;;;;;;;1999.90;999.90;;;12.70;97.20;;;;;;5055372;28;20490;-71
2022/03/24 08:57:06;;;;;;;1999.90;999.90;;;12.70;96.60;;;;;;5055355;28;20445;-69
2022/03/24 08:59:33;;;;;;;1999.90;999.90;;;12.80;96.50;;;;;;5056645;28;20442;-70
2022/03/24 09:02:00;;;;;;;1999.90;999.90;;;12.60;96.40;;;;;;5056907;28;20442;-70
2022/03/24 09:04:27;;;;;;;1999.90;999.90;;;12.70;96.80;;;;;;5056840;28;20442;-71
2022/03/24 09:06:54;;;;;;;1999.90;999.90;;;12.60;96.60;;;;;;5056922;28;20537;-70
2022/03/24 09:09:22;;;;;;;1999.90;999.90;;;12.70;97.00;;;;;;5053145;28;20446;-70
2022/03/24 09:11:50;;;;;;;1999.90;999.90;;;12.80;96.50;;;;;;5048396;28;21035;-69
2022/03/24 09:14:17;;;;;;;1999.90;999.90;;;13.00;96.50;;;;;;5049002;28;20531;-70
2022/03/24 09:16:45;;;;;;;1999.90;999.90;;;13.10;96.50;;;;;;5049444;28;20455;-69
2022/03/24 09:19:12;;;;;;;1999.90;999.90;;;13.30;96.40;;;;;;5048303;28;20942;-69
2022/03/24 09:21:38;;;;;;;1999.90;999.90;;;13.50;95.60;;;;;;5051279;28;20848;-70
2022/03/24 09:24:06;;;;;;;1999.90;999.90;;;13.20;95.10;;;;;;5055772;28;20865;-69
2022/03/24 09:26:32;;;;;;;1999.90;999.90;;;13.40;95.40;;;;;;5055895;28;20473;-71
2022/03/24 09:29:01;;;;;;;1999.90;999.90;;;13.30;95.00;;;;;;5054974;28;20446;-69
2022/03/24 09:31:28;;;;;;;1999.90;999.90;;;13.50;95.80;;;;;;5047961;28;20446;-69
2022/03/24 09:33:54;;;;;;;1999.90;999.90;;;13.60;95.30;;;;;;5048297;28;20459;-68
2022/03/24 09:36:21;;;;;;;1999.90;999.90;;;13.80;95.30;;;;;;5047666;28;20478;-69
2022/03/24 09:38:48;;;;;;;1999.90;999.90;;;14.00;95.10;;;;;;5048375;28;20465;-69
2022/03/24 09:41:16;;;;;;;1999.90;999.90;;;14.10;94.90;;;;;;5047941;28;20488;-68
2022/03/24 09:43:44;;;;;;;1999.90;999.90;;;14.50;94.80;;;;;;5053434;28;20450;-69
2022/03/24 09:46:12;;;;;;;1999.90;999.90;;;14.60;94.50;;;;;;5053552;28;20462;-70
2022/03/24 09:48:41;;;;;;;1999.90;999.90;;;14.60;94.00;;;;;;5053994;28;20442;-70
2022/03/24 09:51:09;;;;;;;1999.90;999.90;;;14.80;93.80;;;;;;5048969;28;20477;-68
2022/03/24 09:53:39;;;;;;;1999.90;999.90;;;14.70;92.70;;;;;;5048107;28;20453;-69
2022/03/24 09:56:05;;;;;;;1999.90;999.90;;;14.70;93.00;;;;;;5047288;28;20486;-69
2022/03/24 09:58:32;;;;;;;1999.90;999.90;;;14.80;92.80;;;;;;5050980;28;20446;-70
2022/03/24 10:01:01;;;;;;;1999.90;999.90;;;14.90;93.10;;;;;;5053515;28;20500;-70
2022/03/24 10:03:29;;;;;;;1999.90;999.90;;;15.10;93.20;;;;;;5053467;28;20450;-69
2022/03/24 10:06:00;;;;;;;1999.90;999.90;;;15.00;93.00;;;;;;5053684;28;20466;-70
2022/03/24 10:08:28;;;;;;;1999.90;999.90;;;15.10;92.80;;;;;;5053665;28;20450;-70
2022/03/24 10:10:59;;;;;;;1999.90;999.90;;;15.20;92.00;;;;;;5050925;28;20500;-68
2022/03/24 10:13:40;;;;;;;1999.90;999.90;;;15.20;92.60;;;;;;5047572;28;20464;-69
2022/03/24 10:16:07;;;;;;;1999.90;999.90;;;15.20;92.60;;;;;;5047388;28;20493;-69
2022/03/24 10:18:35;;;;;;;1999.90;999.90;;;15.40;92.40;;;;;;5050231;28;20454;-70
2022/03/24 10:21:03;;;;;;;1999.90;999.90;;;15.60;92.10;;;;;;5052698;28;20841;-70
2022/03/24 10:23:33;;;;;;;1999.90;999.90;;;15.70;91.50;;;;;;5053062;28;20446;-70
2022/03/24 10:26:03;;;;;;;1999.90;999.90;;;15.80;91.40;;;;;;5052910;28;20462;-69
2022/03/24 10:28:30;;;;;;;1999.90;999.90;;;15.60;91.30;;;;;;5053024;28;20446;-70
2022/03/24 10:30:58;;;;;;;1999.90;999.90;;;15.50;91.30;;;;;;5051198;28;20512;-69
2022/03/24 10:33:30;;;;;;;1999.90;999.90;;;15.50;91.30;;;;;;5046941;28;20454;-69
2022/03/24 10:36:11;;;;;;;1999.90;999.90;;;15.50;91.10;;;;;;5046436;28;20511;-68
2022/03/24 10:38:40;;;;;;;1999.90;999.90;;;15.50;91.10;;;;;;5047130;28;20481;-69
2022/03/24 10:41:16;;;;;;;1999.90;999.90;;;15.50;90.90;;;;;;5046078;28;20938;-68
2022/03/24 10:43:43;;;;;;;1999.90;999.90;;;15.70;90.70;;;;;;5051108;28;20508;-70
2022/03/24 10:46:15;;;;;;;1999.90;999.90;;;15.90;90.60;;;;;;5064586;28;20465;-70
2022/03/24 10:48:42;;;;;;;1999.90;999.90;;;16.00;89.40;;;;;;5073017;28;20666;-69
2022/03/24 10:51:10;;;;;;;1999.90;999.90;;;15.90;88.30;;;;;;5067047;28;20453;-68
2022/03/24 10:53:42;;;;;;;1999.90;999.90;;;16.00;88.30;;;;;;5046396;28;21029;-69
2022/03/24 10:56:13;;;;;;;1999.90;999.90;;;16.10;86.20;;;;;;5050425;28;20482;-71
2022/03/24 10:58:43;;;;;;;1999.90;999.90;;;16.40;86.40;;;;;;5053252;28;20446;-70
2022/03/24 11:01:14;;;;;;;1999.90;999.90;;;16.20;83.70;;;;;;5052527;28;20500;-70
2022/03/24 11:03:43;;;;;;;1999.90;999.90;;;16.20;84.30;;;;;;5053409;28;20450;-69
2022/03/24 11:06:12;;;;;;;1999.90;999.90;;;16.10;83.50;;;;;;5050274;28;20466;-70
2022/03/24 11:08:40;;;;;;;1999.90;999.90;;;16.10;82.30;;;;;;5052442;28;20455;-70
2022/03/24 11:11:09;;;;;;;1999.90;999.90;;;16.20;83.40;;;;;;5052467;28;20995;-70
2022/03/24 11:13:47;;;;;;;1999.90;999.90;;;16.30;83.40;;;;;;5052252;28;20446;-70
2022/03/24 11:16:15;;;;;;;1999.90;999.90;;;16.20;80.50;;;;;;5051027;28;20478;-69
2022/03/24 11:18:42;;;;;;;1999.90;999.90;;;16.20;81.60;;;;;;5062600;28;20942;-70
2022/03/24 11:21:21;;;;;;;1999.90;999.90;;;16.40;80.30;;;;;;5066092;28;20499;-70
2022/03/24 11:23:50;;;;;;;1999.90;999.90;;;16.10;80.70;;;;;;5058201;28;20443;-70
2022/03/24 11:26:17;;;;;;;1999.90;999.90;;;16.10;80.90;;;;;;5068270;28;20900;-70
2022/03/24 11:28:46;;;;;;;1999.90;999.90;;;16.40;79.00;;;;;;5069128;28;20507;-70
2022/03/24 11:31:15;;;;;;;1999.90;999.90;;;16.40;78.40;;;;;;5052170;28;20885;-70
2022/03/24 11:33:46;;;;;;;1999.90;999.90;;;16.50;76.90;;;;;;5052192;28;20447;-69
2022/03/24 11:36:15;;;;;;;1999.90;999.90;;;16.40;76.70;;;;;;5053340;28;20501;-69
2022/03/24 11:38:43;;;;;;;1999.90;999.90;;;16.50;77.40;;;;;;5051958;28;20939;-69
2022/03/24 11:41:19;;;;;;;1999.90;999.90;;;16.60;75.30;;;;;;5052085;28;20500;-69
2022/03/24 11:43:50;;;;;;;1999.90;999.90;;;16.70;75.80;;;;;;5052033;28;20476;-70
2022/03/24 11:46:27;;;;;;;1999.90;999.90;;;16.50;75.00;;;;;;5052584;28;20554;-70
2022/03/24 11:49:13;;;;;;;1999.90;999.90;;;16.70;76.70;;;;;;5054053;28;20442;-69
2022/03/24 11:51:41;;;;;;;1999.90;999.90;;;17.00;74.00;;;;;;5053074;28;20431;-70
2022/03/24 11:54:09;;;;;;;1999.90;999.90;;;16.70;73.30;;;;;;5052525;28;20450;-70
2022/03/24 11:56:37;;;;;;;1999.90;999.90;;;16.80;73.50;;;;;;5053428;28;20490;-70
2022/03/24 11:59:21;;;;;;;1999.90;999.90;;;17.00;73.40;;;;;;5056763;28;20445;-71
2022/03/24 12:02:09;;;;;;;1999.90;999.90;;;16.90;72.40;;;;;;5059163;28;20430;-70
2022/03/24 12:04:45;;;;;;;1999.90;999.90;;;17.00;72.00;;;;;;5059062;28;20533;-70
2022/03/24 12:07:17;;;;;;;1999.90;999.90;;;17.30;71.00;;;;;;5056644;28;20842;-69
2022/03/24 12:10:00;;;;;;;1999.90;999.90;;;17.40;73.30;;;;;;5052266;28;20441;-69